»·PEaware :: SWA584 KOAK-KRNO

SWA584 :: KOAK-KRNO

FLIGHT INFORMATION

Flight Status: Arrived
Operator:
Southwest Airlines
More flights by this operator :: More flights under this callsign
Pilot: Anonymous 17611 (17611)
Aircraft: BOEING 737-800
(B738)
More flights by this aircraft type
Origin: KOAK Metro Oakland Intl
United States
Destination: KRNO Reno/Tahoe Intl
United States
More flights between these airports :: More routes between these airports
Route: OAK2 OAK SAC SIER3
File this flight plan on PilotEdge
Remarks:
Altitude:
(Current/Filed)
23,000ft
Speed:
(Current/Filed)
436kts
Departed: 09-Jan-18 04:32 PM
Arrived: 09-Jan-18 05:08 PM
Distance/Time
Traveled:
157nm/0:36
Distance/Time
To Go:
Arrived

Flight Plot

Page will automatically refresh every two minutes.

Flight plan parsing failed; only flown route is shown


Map Options




Map Legend


Flown Route
Filed Route
Departure Airport
Arrival Airport
Navaid (VOR, NDB)
Fix

Horizontal Profiles

Position Reports

Time Latitude Longitude Heading Altitude Ground
Speed
09-Jan-18 16:03 37.711404 -122.216347 125 11ft 0kts
09-Jan-18 16:04 37.711404 -122.216347 125 11ft 0kts
09-Jan-18 16:05 37.711404 -122.216347 125 11ft 0kts
09-Jan-18 16:06 37.711404 -122.216347 125 11ft 0kts
09-Jan-18 16:07 37.711404 -122.216347 125 11ft 0kts
09-Jan-18 16:08 37.711404 -122.216347 125 11ft 0kts
09-Jan-18 16:09 37.711404 -122.216347 125 11ft 0kts
09-Jan-18 16:10 37.711404 -122.216347 125 11ft 0kts
09-Jan-18 16:11 37.711404 -122.216347 125 11ft 0kts
09-Jan-18 16:12 37.711404 -122.216347 125 11ft 0kts
09-Jan-18 16:13 37.711404 -122.216347 125 11ft 0kts
09-Jan-18 16:14 37.711404 -122.216347 125 11ft 0kts
09-Jan-18 16:15 37.711404 -122.216347 125 11ft 0kts
09-Jan-18 16:16 37.711404 -122.216347 125 11ft 0kts
09-Jan-18 16:17 37.711404 -122.216347 125 11ft 0kts
09-Jan-18 16:18 37.711404 -122.216347 125 11ft 0kts
09-Jan-18 16:19 37.711404 -122.216347 125 11ft 0kts
09-Jan-18 16:20 37.711404 -122.216347 125 11ft 0kts
09-Jan-18 16:21 37.711404 -122.216347 125 11ft 0kts
09-Jan-18 16:22 37.711404 -122.216347 125 11ft 0kts
09-Jan-18 16:23 37.711404 -122.216347 125 11ft 0kts
09-Jan-18 16:24 37.711404 -122.216347 125 11ft 0kts
09-Jan-18 16:25 37.711404 -122.216347 125 11ft 0kts
09-Jan-18 16:26 37.711404 -122.216347 125 11ft 0kts
09-Jan-18 16:27 37.711404 -122.216347 125 11ft 0kts
09-Jan-18 16:28 37.711404 -122.216347 125 11ft 0kts
09-Jan-18 16:29 37.711395 -122.216355 125 11ft 0kts
09-Jan-18 16:30 37.711718 -122.216918 131 11ft 2kts
09-Jan-18 16:31 37.712130 -122.216905 217 11ft 0kts
09-Jan-18 16:32 37.712130 -122.216905 217 11ft 0kts
09-Jan-18 16:33 37.712119 -122.216915 217 11ft 1kts
09-Jan-18 16:34 37.710020 -122.217331 125 11ft 15kts
09-Jan-18 16:35 37.705934 -122.217104 130 11ft 20kts
09-Jan-18 16:36 37.702540 -122.213536 184 11ft 8kts
09-Jan-18 16:37 37.702446 -122.213550 187 11ft 0kts
09-Jan-18 16:38 37.702911 -122.216399 309 11ft 46kts
09-Jan-18 16:39 37.728579 -122.254022 309 1832ft 175kts
09-Jan-18 16:40 37.766740 -122.307296 309 2471ft 223kts
09-Jan-18 16:41 37.823746 -122.345877 15 5554ft 279kts
09-Jan-18 16:42 37.874277 -122.272500 56 9380ft 292kts
09-Jan-18 16:43 37.921983 -122.182463 56 12379ft 330kts
09-Jan-18 16:44 37.972294 -122.082981 45 15488ft 356kts
09-Jan-18 16:45 38.047281 -121.996815 40 18471ft 379kts
09-Jan-18 16:46 38.125628 -121.908714 40 18782ft 384kts
09-Jan-18 16:47 38.211643 -121.812165 40 18776ft 431kts
09-Jan-18 16:48 38.298290 -121.714683 38 22067ft 403kts
09-Jan-18 16:49 38.384779 -121.617794 37 22802ft 439kts
09-Jan-18 16:50 38.477117 -121.508962 41 22793ft 468kts
09-Jan-18 16:51 38.567363 -121.390987 43 22789ft 478kts
09-Jan-18 16:52 38.659085 -121.271259 42 22777ft 487kts
09-Jan-18 16:53 38.753032 -121.149167 43 22779ft 482kts
09-Jan-18 16:54 38.844648 -121.029601 43 22793ft 472kts
09-Jan-18 16:55 38.934121 -120.913746 43 22793ft 469kts
09-Jan-18 16:56 39.026130 -120.793948 44 22802ft 477kts
09-Jan-18 16:57 39.117264 -120.676031 42 21743ft 459kts
09-Jan-18 16:58 39.201366 -120.567059 43 19623ft 416kts
09-Jan-18 16:59 39.279857 -120.465629 43 17511ft 388kts
09-Jan-18 17:00 39.353680 -120.370288 43 16036ft 376kts
09-Jan-18 17:01 39.426819 -120.275650 44 16019ft 381kts
09-Jan-18 17:02 39.499387 -120.175481 43 16018ft 383kts
09-Jan-18 17:03 39.568260 -120.078958 43 16024ft 382kts
09-Jan-18 17:04 39.634858 -119.986849 37 14290ft 375kts
09-Jan-18 17:05 39.708744 -119.952695 5 13014ft 310kts
09-Jan-18 17:06 39.806181 -119.918223 33 12290ft 325kts
09-Jan-18 17:07 39.835119 -119.834316 98 10455ft 317kts
09-Jan-18 17:08 39.769680 -119.763911 188 9917ft 276kts
09-Jan-18 17:09 39.707623 -119.768030 183 8608ft 242kts
09-Jan-18 17:10 39.643356 -119.768748 182 7103ft 164kts
09-Jan-18 17:11 39.605639 -119.768884 181 6351ft 164kts
09-Jan-18 17:12 39.555238 -119.769091 181 5323ft 152kts
09-Jan-18 17:13 39.520127 -119.769185 180 4592ft 155kts
09-Jan-18 17:14 39.497369 -119.769607 254 4407ft 3kts
09-Jan-18 17:15 39.497796 -119.771527 352 4410ft 8kts
09-Jan-18 17:16 39.502784 -119.771511 0 4410ft 15kts
09-Jan-18 17:17 39.503824 -119.773401 298 4414ft 4kts
09-Jan-18 17:18 39.504417 -119.773744 357 4414ft 0kts
09-Jan-18 17:19 39.504417 -119.773744 357 4414ft 0kts
09-Jan-18 17:20 39.504417 -119.773744 357 4414ft 0kts
09-Jan-18 17:21 39.504417 -119.773744 357 4414ft 0kts
09-Jan-18 17:22 39.504417 -119.773744 357 4414ft 0kts
09-Jan-18 17:23 39.504417 -119.773744 357 4414ft 0kts
09-Jan-18 17:24 39.504417 -119.773744 357 4414ft 0kts
09-Jan-18 17:25 39.504417 -119.773744 357 4414ft 0kts
09-Jan-18 17:26 39.504417 -119.773744 357 4414ft 0kts

Navigation Log

Ident Type
Flight plan parsing failed, navigation log unavailable